sensor_id;sensor_type;location;lat;lon;timestamp;P1;durP1;ratioP1;P2;durP2;ratioP2
17361;SDS011;8798;51.938;4.348;2023-12-07T00:00:43;10.70;;;5.20;;
17361;SDS011;8798;51.938;4.348;2023-12-07T00:03:11;12.03;;;6.13;;
17361;SDS011;8798;51.938;4.348;2023-12-07T00:05:43;9.63;;;5.30;;
17361;SDS011;8798;51.938;4.348;2023-12-07T00:08:11;10.90;;;5.30;;
17361;SDS011;8798;51.938;4.348;2023-12-07T00:10:39;12.43;;;5.53;;
17361;SDS011;8798;51.938;4.348;2023-12-07T00:13:07;13.90;;;5.90;;
17361;SDS011;8798;51.938;4.348;2023-12-07T00:15:35;11.67;;;5.23;;
17361;SDS011;8798;51.938;4.348;2023-12-07T00:18:06;12.53;;;5.30;;
17361;SDS011;8798;51.938;4.348;2023-12-07T00:20:34;11.93;;;5.40;;
17361;SDS011;8798;51.938;4.348;2023-12-07T00:23:02;9.30;;;4.77;;
17361;SDS011;8798;51.938;4.348;2023-12-07T00:25:30;9.57;;;4.73;;
17361;SDS011;8798;51.938;4.348;2023-12-07T00:27:58;11.13;;;5.30;;
17361;SDS011;8798;51.938;4.348;2023-12-07T00:30:26;11.50;;;4.90;;
17361;SDS011;8798;51.938;4.348;2023-12-07T00:32:55;9.83;;;4.97;;
17361;SDS011;8798;51.938;4.348;2023-12-07T00:35:24;8.87;;;4.57;;
17361;SDS011;8798;51.938;4.348;2023-12-07T00:38:01;11.73;;;5.07;;
17361;SDS011;8798;51.938;4.348;2023-12-07T00:40:29;10.50;;;5.03;;
17361;SDS011;8798;51.938;4.348;2023-12-07T00:43:02;13.70;;;4.97;;
17361;SDS011;8798;51.938;4.348;2023-12-07T00:45:31;10.27;;;4.43;;
17361;SDS011;8798;51.938;4.348;2023-12-07T00:47:59;9.63;;;4.73;;
17361;SDS011;8798;51.938;4.348;2023-12-07T00:50:29;10.77;;;4.57;;
17361;SDS011;8798;51.938;4.348;2023-12-07T00:52:58;8.17;;;4.60;;
17361;SDS011;8798;51.938;4.348;2023-12-07T00:55:26;8.47;;;4.83;;
17361;SDS011;8798;51.938;4.348;2023-12-07T00:57:54;10.27;;;4.83;;
17361;SDS011;8798;51.938;4.348;2023-12-07T01:00:22;8.70;;;4.07;;
17361;SDS011;8798;51.938;4.348;2023-12-07T01:02:50;7.20;;;4.30;;
17361;SDS011;8798;51.938;4.348;2023-12-07T01:05:18;8.93;;;4.40;;
17361;SDS011;8798;51.938;4.348;2023-12-07T01:07:48;7.27;;;3.87;;
17361;SDS011;8798;51.938;4.348;2023-12-07T01:10:16;8.80;;;4.43;;
17361;SDS011;8798;51.938;4.348;2023-12-07T01:12:45;8.00;;;4.20;;
17361;SDS011;8798;51.938;4.348;2023-12-07T01:15:13;8.37;;;4.03;;
17361;SDS011;8798;51.938;4.348;2023-12-07T01:17:41;7.10;;;3.87;;
17361;SDS011;8798;51.938;4.348;2023-12-07T01:20:10;6.67;;;4.23;;
17361;SDS011;8798;51.938;4.348;2023-12-07T01:22:39;11.00;;;4.90;;
17361;SDS011;8798;51.938;4.348;2023-12-07T01:25:10;9.70;;;4.47;;
17361;SDS011;8798;51.938;4.348;2023-12-07T01:27:38;7.00;;;4.37;;
17361;SDS011;8798;51.938;4.348;2023-12-07T01:30:07;9.20;;;4.30;;
17361;SDS011;8798;51.938;4.348;2023-12-07T01:32:36;8.93;;;4.60;;
17361;SDS011;8798;51.938;4.348;2023-12-07T01:35:04;11.60;;;4.80;;
17361;SDS011;8798;51.938;4.348;2023-12-07T01:37:33;8.03;;;4.40;;
17361;SDS011;8798;51.938;4.348;2023-12-07T01:40:01;6.63;;;4.07;;
17361;SDS011;8798;51.938;4.348;2023-12-07T01:42:33;8.63;;;4.77;;
17361;SDS011;8798;51.938;4.348;2023-12-07T01:45:02;10.07;;;4.27;;
17361;SDS011;8798;51.938;4.348;2023-12-07T01:47:30;6.90;;;4.37;;
17361;SDS011;8798;51.938;4.348;2023-12-07T01:49:59;7.97;;;4.17;;
17361;SDS011;8798;51.938;4.348;2023-12-07T01:52:35;7.33;;;4.27;;
17361;SDS011;8798;51.938;4.348;2023-12-07T01:55:06;8.97;;;4.30;;
17361;SDS011;8798;51.938;4.348;2023-12-07T01:57:38;6.50;;;3.80;;
17361;SDS011;8798;51.938;4.348;2023-12-07T02:00:07;8.30;;;4.40;;
17361;SDS011;8798;51.938;4.348;2023-12-07T02:02:36;7.50;;;4.47;;
17361;SDS011;8798;51.938;4.348;2023-12-07T02:05:05;7.63;;;4.50;;
17361;SDS011;8798;51.938;4.348;2023-12-07T02:07:34;10.03;;;3.93;;
17361;SDS011;8798;51.938;4.348;2023-12-07T02:10:03;7.10;;;4.03;;
17361;SDS011;8798;51.938;4.348;2023-12-07T02:12:33;8.97;;;4.27;;
17361;SDS011;8798;51.938;4.348;2023-12-07T02:15:04;5.87;;;3.93;;
17361;SDS011;8798;51.938;4.348;2023-12-07T02:17:35;10.83;;;4.23;;
17361;SDS011;8798;51.938;4.348;2023-12-07T02:20:11;7.13;;;3.57;;
17361;SDS011;8798;51.938;4.348;2023-12-07T02:22:45;8.27;;;4.30;;
17361;SDS011;8798;51.938;4.348;2023-12-07T02:25:18;6.37;;;4.03;;
17361;SDS011;8798;51.938;4.348;2023-12-07T02:27:52;8.10;;;4.13;;
17361;SDS011;8798;51.938;4.348;2023-12-07T02:30:20;6.40;;;3.97;;
17361;SDS011;8798;51.938;4.348;2023-12-07T02:32:48;7.33;;;4.17;;
17361;SDS011;8798;51.938;4.348;2023-12-07T02:35:16;7.50;;;4.27;;
17361;SDS011;8798;51.938;4.348;2023-12-07T02:37:45;7.80;;;4.13;;
17361;SDS011;8798;51.938;4.348;2023-12-07T02:40:15;9.53;;;4.43;;
17361;SDS011;8798;51.938;4.348;2023-12-07T02:42:45;5.73;;;3.80;;
17361;SDS011;8798;51.938;4.348;2023-12-07T02:45:16;6.13;;;4.27;;
17361;SDS011;8798;51.938;4.348;2023-12-07T02:47:44;6.93;;;4.10;;
17361;SDS011;8798;51.938;4.348;2023-12-07T02:50:12;7.40;;;4.13;;
17361;SDS011;8798;51.938;4.348;2023-12-07T02:52:41;6.30;;;4.27;;
17361;SDS011;8798;51.938;4.348;2023-12-07T02:55:09;8.47;;;4.53;;
17361;SDS011;8798;51.938;4.348;2023-12-07T02:57:37;8.80;;;4.80;;
17361;SDS011;8798;51.938;4.348;2023-12-07T03:00:06;10.20;;;4.40;;
17361;SDS011;8798;51.938;4.348;2023-12-07T03:02:37;11.67;;;4.50;;
17361;SDS011;8798;51.938;4.348;2023-12-07T03:05:06;9.57;;;4.40;;
17361;SDS011;8798;51.938;4.348;2023-12-07T03:07:35;13.27;;;5.07;;
17361;SDS011;8798;51.938;4.348;2023-12-07T03:10:03;9.73;;;5.13;;
17361;SDS011;8798;51.938;4.348;2023-12-07T03:12:32;8.20;;;5.10;;
17361;SDS011;8798;51.938;4.348;2023-12-07T03:15:00;9.83;;;5.00;;
17361;SDS011;8798;51.938;4.348;2023-12-07T03:17:29;13.93;;;5.87;;
17361;SDS011;8798;51.938;4.348;2023-12-07T03:19:58;13.30;;;6.90;;
17361;SDS011;8798;51.938;4.348;2023-12-07T03:22:26;17.63;;;7.10;;
17361;SDS011;8798;51.938;4.348;2023-12-07T03:24:56;13.20;;;7.20;;
17361;SDS011;8798;51.938;4.348;2023-12-07T03:27:24;15.03;;;7.97;;
17361;SDS011;8798;51.938;4.348;2023-12-07T03:29:52;22.50;;;8.30;;
17361;SDS011;8798;51.938;4.348;2023-12-07T03:32:20;21.27;;;9.00;;
17361;SDS011;8798;51.938;4.348;2023-12-07T03:34:48;21.20;;;8.97;;
17361;SDS011;8798;51.938;4.348;2023-12-07T03:37:18;22.63;;;10.50;;
17361;SDS011;8798;51.938;4.348;2023-12-07T03:39:46;24.83;;;11.93;;
17361;SDS011;8798;51.938;4.348;2023-12-07T03:42:14;31.53;;;12.93;;
17361;SDS011;8798;51.938;4.348;2023-12-07T03:45:03;37.67;;;15.63;;
17361;SDS011;8798;51.938;4.348;2023-12-07T03:47:32;43.60;;;17.10;;
17361;SDS011;8798;51.938;4.348;2023-12-07T03:50:00;46.30;;;18.67;;
17361;SDS011;8798;51.938;4.348;2023-12-07T03:52:30;44.57;;;18.03;;
17361;SDS011;8798;51.938;4.348;2023-12-07T03:54:58;49.23;;;19.47;;
17361;SDS011;8798;51.938;4.348;2023-12-07T03:57:26;37.90;;;16.73;;
17361;SDS011;8798;51.938;4.348;2023-12-07T03:59:54;39.20;;;15.60;;
17361;SDS011;8798;51.938;4.348;2023-12-07T04:02:23;31.30;;;14.73;;
17361;SDS011;8798;51.938;4.348;2023-12-07T04:04:51;32.40;;;13.67;;
17361;SDS011;8798;51.938;4.348;2023-12-07T04:07:19;23.90;;;12.33;;
17361;SDS011;8798;51.938;4.348;2023-12-07T04:09:49;24.30;;;11.47;;
17361;SDS011;8798;51.938;4.348;2023-12-07T04:12:17;22.17;;;11.57;;
17361;SDS011;8798;51.938;4.348;2023-12-07T04:14:46;23.43;;;11.20;;
17361;SDS011;8798;51.938;4.348;2023-12-07T04:17:14;20.20;;;10.30;;
17361;SDS011;8798;51.938;4.348;2023-12-07T04:19:42;19.90;;;10.57;;
17361;SDS011;8798;51.938;4.348;2023-12-07T04:22:10;22.57;;;11.80;;
17361;SDS011;8798;51.938;4.348;2023-12-07T04:24:38;21.67;;;11.27;;
17361;SDS011;8798;51.938;4.348;2023-12-07T04:27:08;26.47;;;12.60;;
17361;SDS011;8798;51.938;4.348;2023-12-07T04:29:36;24.40;;;12.47;;
17361;SDS011;8798;51.938;4.348;2023-12-07T04:32:04;24.70;;;10.83;;
17361;SDS011;8798;51.938;4.348;2023-12-07T04:34:32;22.37;;;10.47;;
17361;SDS011;8798;51.938;4.348;2023-12-07T04:37:01;23.77;;;10.00;;
17361;SDS011;8798;51.938;4.348;2023-12-07T04:39:29;20.93;;;9.43;;
17361;SDS011;8798;51.938;4.348;2023-12-07T04:41:57;18.87;;;8.70;;
17361;SDS011;8798;51.938;4.348;2023-12-07T04:44:27;23.03;;;8.90;;
17361;SDS011;8798;51.938;4.348;2023-12-07T04:46:55;21.10;;;8.60;;
17361;SDS011;8798;51.938;4.348;2023-12-07T04:49:23;21.77;;;8.17;;
17361;SDS011;8798;51.938;4.348;2023-12-07T04:51:51;23.77;;;7.63;;
17361;SDS011;8798;51.938;4.348;2023-12-07T04:54:20;18.13;;;7.77;;
17361;SDS011;8798;51.938;4.348;2023-12-07T04:56:48;15.50;;;6.97;;
17361;SDS011;8798;51.938;4.348;2023-12-07T04:59:16;16.83;;;8.00;;
17361;SDS011;8798;51.938;4.348;2023-12-07T05:01:45;29.67;;;8.43;;
17361;SDS011;8798;51.938;4.348;2023-12-07T05:04:14;15.43;;;6.93;;
17361;SDS011;8798;51.938;4.348;2023-12-07T05:06:42;20.67;;;6.63;;
17361;SDS011;8798;51.938;4.348;2023-12-07T05:09:10;12.10;;;6.07;;
17361;SDS011;8798;51.938;4.348;2023-12-07T05:11:39;19.73;;;7.13;;
17361;SDS011;8798;51.938;4.348;2023-12-07T05:14:07;18.83;;;6.63;;
17361;SDS011;8798;51.938;4.348;2023-12-07T05:16:37;15.30;;;6.10;;
17361;SDS011;8798;51.938;4.348;2023-12-07T05:19:07;16.53;;;6.90;;
17361;SDS011;8798;51.938;4.348;2023-12-07T05:21:35;14.53;;;6.40;;
17361;SDS011;8798;51.938;4.348;2023-12-07T05:24:05;11.73;;;5.57;;
17361;SDS011;8798;51.938;4.348;2023-12-07T05:26:34;14.73;;;6.43;;
17361;SDS011;8798;51.938;4.348;2023-12-07T05:29:02;14.37;;;6.80;;
17361;SDS011;8798;51.938;4.348;2023-12-07T05:31:30;14.90;;;6.73;;
17361;SDS011;8798;51.938;4.348;2023-12-07T05:33:59;19.17;;;7.23;;
17361;SDS011;8798;51.938;4.348;2023-12-07T05:36:29;18.73;;;8.13;;
17361;SDS011;8798;51.938;4.348;2023-12-07T05:38:57;26.03;;;9.23;;
17361;SDS011;8798;51.938;4.348;2023-12-07T05:41:25;22.33;;;8.93;;
17361;SDS011;8798;51.938;4.348;2023-12-07T05:43:53;18.53;;;7.93;;
17361;SDS011;8798;51.938;4.348;2023-12-07T05:46:21;22.83;;;7.67;;
17361;SDS011;8798;51.938;4.348;2023-12-07T05:48:49;24.27;;;8.03;;
17361;SDS011;8798;51.938;4.348;2023-12-07T05:51:20;24.17;;;8.10;;
17361;SDS011;8798;51.938;4.348;2023-12-07T05:53:49;21.70;;;8.17;;
17361;SDS011;8798;51.938;4.348;2023-12-07T05:56:19;27.17;;;7.17;;
17361;SDS011;8798;51.938;4.348;2023-12-07T05:58:47;15.67;;;7.53;;
17361;SDS011;8798;51.938;4.348;2023-12-07T06:01:16;21.40;;;7.63;;
17361;SDS011;8798;51.938;4.348;2023-12-07T06:03:45;20.70;;;8.13;;
17361;SDS011;8798;51.938;4.348;2023-12-07T06:06:13;23.23;;;8.10;;
17361;SDS011;8798;51.938;4.348;2023-12-07T06:08:41;24.40;;;7.83;;
17361;SDS011;8798;51.938;4.348;2023-12-07T06:11:12;20.70;;;7.87;;
17361;SDS011;8798;51.938;4.348;2023-12-07T06:13:40;22.87;;;7.17;;
17361;SDS011;8798;51.938;4.348;2023-12-07T06:16:11;30.67;;;8.40;;
17361;SDS011;8798;51.938;4.348;2023-12-07T06:18:41;22.77;;;8.10;;
17361;SDS011;8798;51.938;4.348;2023-12-07T06:21:09;27.70;;;7.47;;
17361;SDS011;8798;51.938;4.348;2023-12-07T06:23:38;14.40;;;6.60;;
17361;SDS011;8798;51.938;4.348;2023-12-07T06:26:08;19.07;;;7.70;;
17361;SDS011;8798;51.938;4.348;2023-12-07T06:28:37;18.93;;;7.47;;
17361;SDS011;8798;51.938;4.348;2023-12-07T06:31:06;18.87;;;7.73;;
17361;SDS011;8798;51.938;4.348;2023-12-07T06:33:35;17.30;;;6.50;;
17361;SDS011;8798;51.938;4.348;2023-12-07T06:36:03;17.87;;;7.60;;
17361;SDS011;8798;51.938;4.348;2023-12-07T06:38:32;17.07;;;6.80;;
17361;SDS011;8798;51.938;4.348;2023-12-07T06:41:00;15.90;;;6.50;;
17361;SDS011;8798;51.938;4.348;2023-12-07T06:43:28;20.30;;;6.80;;
17361;SDS011;8798;51.938;4.348;2023-12-07T06:45:58;20.67;;;7.07;;
17361;SDS011;8798;51.938;4.348;2023-12-07T06:48:26;22.20;;;7.00;;
17361;SDS011;8798;51.938;4.348;2023-12-07T06:50:54;23.67;;;7.03;;
17361;SDS011;8798;51.938;4.348;2023-12-07T06:53:23;38.20;;;7.63;;
17361;SDS011;8798;51.938;4.348;2023-12-07T06:55:51;28.83;;;8.17;;
17361;SDS011;8798;51.938;4.348;2023-12-07T06:58:19;20.17;;;7.30;;
17361;SDS011;8798;51.938;4.348;2023-12-07T07:00:47;30.50;;;8.13;;
17361;SDS011;8798;51.938;4.348;2023-12-07T07:03:17;35.20;;;8.77;;
17361;SDS011;8798;51.938;4.348;2023-12-07T07:05:46;21.30;;;8.50;;
17361;SDS011;8798;51.938;4.348;2023-12-07T07:08:14;27.53;;;8.27;;
17361;SDS011;8798;51.938;4.348;2023-12-07T07:10:43;25.97;;;8.17;;
17361;SDS011;8798;51.938;4.348;2023-12-07T07:13:12;26.20;;;8.20;;
17361;SDS011;8798;51.938;4.348;2023-12-07T07:15:41;21.07;;;8.13;;
17361;SDS011;8798;51.938;4.348;2023-12-07T07:18:18;22.63;;;8.97;;
17361;SDS011;8798;51.938;4.348;2023-12-07T07:20:47;20.13;;;8.13;;
17361;SDS011;8798;51.938;4.348;2023-12-07T07:23:15;24.57;;;7.50;;
17361;SDS011;8798;51.938;4.348;2023-12-07T07:25:43;21.23;;;8.67;;
17361;SDS011;8798;51.938;4.348;2023-12-07T07:28:11;31.97;;;8.70;;
17361;SDS011;8798;51.938;4.348;2023-12-07T07:30:40;24.63;;;8.33;;
17361;SDS011;8798;51.938;4.348;2023-12-07T07:33:08;29.53;;;8.40;;
17361;SDS011;8798;51.938;4.348;2023-12-07T07:35:37;20.77;;;7.40;;
17361;SDS011;8798;51.938;4.348;2023-12-07T07:38:05;22.87;;;8.43;;
17361;SDS011;8798;51.938;4.348;2023-12-07T07:40:33;21.77;;;7.07;;
17361;SDS011;8798;51.938;4.348;2023-12-07T07:43:02;21.13;;;7.50;;
17361;SDS011;8798;51.938;4.348;2023-12-07T07:45:31;24.73;;;8.00;;
17361;SDS011;8798;51.938;4.348;2023-12-07T07:47:59;19.43;;;6.83;;
17361;SDS011;8798;51.938;4.348;2023-12-07T07:50:28;26.57;;;8.23;;
17361;SDS011;8798;51.938;4.348;2023-12-07T07:52:57;36.57;;;7.37;;
17361;SDS011;8798;51.938;4.348;2023-12-07T07:55:25;23.63;;;7.43;;
17361;SDS011;8798;51.938;4.348;2023-12-07T07:57:53;28.60;;;7.87;;
17361;SDS011;8798;51.938;4.348;2023-12-07T08:00:21;18.33;;;6.83;;
17361;SDS011;8798;51.938;4.348;2023-12-07T08:02:52;21.70;;;7.37;;
17361;SDS011;8798;51.938;4.348;2023-12-07T08:05:20;23.70;;;7.83;;
17361;SDS011;8798;51.938;4.348;2023-12-07T08:07:49;20.17;;;7.93;;
17361;SDS011;8798;51.938;4.348;2023-12-07T08:10:19;18.80;;;6.97;;
17361;SDS011;8798;51.938;4.348;2023-12-07T08:12:48;18.37;;;7.17;;
17361;SDS011;8798;51.938;4.348;2023-12-07T08:15:16;20.57;;;8.00;;
17361;SDS011;8798;51.938;4.348;2023-12-07T08:17:45;19.43;;;7.37;;
17361;SDS011;8798;51.938;4.348;2023-12-07T08:20:14;19.87;;;7.40;;
17361;SDS011;8798;51.938;4.348;2023-12-07T08:22:43;20.37;;;8.00;;
17361;SDS011;8798;51.938;4.348;2023-12-07T08:25:11;20.13;;;7.83;;
17361;SDS011;8798;51.938;4.348;2023-12-07T08:27:40;20.43;;;7.27;;
17361;SDS011;8798;51.938;4.348;2023-12-07T08:30:10;17.40;;;7.10;;
17361;SDS011;8798;51.938;4.348;2023-12-07T08:32:39;32.97;;;7.83;;
17361;SDS011;8798;51.938;4.348;2023-12-07T08:35:08;29.90;;;8.90;;
17361;SDS011;8798;51.938;4.348;2023-12-07T08:37:37;22.97;;;8.10;;
17361;SDS011;8798;51.938;4.348;2023-12-07T08:40:06;42.97;;;9.20;;
17361;SDS011;8798;51.938;4.348;2023-12-07T08:42:36;21.53;;;7.70;;
17361;SDS011;8798;51.938;4.348;2023-12-07T08:45:06;22.30;;;8.30;;
17361;SDS011;8798;51.938;4.348;2023-12-07T08:47:35;25.93;;;9.10;;
17361;SDS011;8798;51.938;4.348;2023-12-07T08:50:04;36.07;;;10.67;;
17361;SDS011;8798;51.938;4.348;2023-12-07T08:52:34;26.90;;;9.83;;
17361;SDS011;8798;51.938;4.348;2023-12-07T08:55:13;32.03;;;10.30;;
17361;SDS011;8798;51.938;4.348;2023-12-07T08:57:42;25.40;;;10.73;;
17361;SDS011;8798;51.938;4.348;2023-12-07T09:00:12;23.67;;;9.63;;
17361;SDS011;8798;51.938;4.348;2023-12-07T09:02:41;33.60;;;10.87;;
17361;SDS011;8798;51.938;4.348;2023-12-07T09:05:13;31.67;;;11.27;;
17361;SDS011;8798;51.938;4.348;2023-12-07T09:07:42;29.07;;;11.33;;
17361;SDS011;8798;51.938;4.348;2023-12-07T09:10:11;27.40;;;10.30;;
17361;SDS011;8798;51.938;4.348;2023-12-07T09:12:39;27.60;;;10.80;;
17361;SDS011;8798;51.938;4.348;2023-12-07T09:15:08;31.27;;;11.07;;
17361;SDS011;8798;51.938;4.348;2023-12-07T09:17:39;28.57;;;10.67;;
17361;SDS011;8798;51.938;4.348;2023-12-07T09:20:08;27.70;;;11.27;;
17361;SDS011;8798;51.938;4.348;2023-12-07T09:22:42;26.43;;;10.53;;
17361;SDS011;8798;51.938;4.348;2023-12-07T09:25:11;36.83;;;11.00;;
17361;SDS011;8798;51.938;4.348;2023-12-07T09:27:40;28.73;;;11.87;;
17361;SDS011;8798;51.938;4.348;2023-12-07T09:30:08;27.53;;;11.53;;
17361;SDS011;8798;51.938;4.348;2023-12-07T09:32:40;33.03;;;13.03;;
17361;SDS011;8798;51.938;4.348;2023-12-07T09:35:11;29.93;;;12.40;;
17361;SDS011;8798;51.938;4.348;2023-12-07T09:37:42;31.03;;;12.93;;
17361;SDS011;8798;51.938;4.348;2023-12-07T09:40:14;34.40;;;12.27;;
17361;SDS011;8798;51.938;4.348;2023-12-07T09:42:44;32.90;;;13.80;;
17361;SDS011;8798;51.938;4.348;2023-12-07T09:45:13;26.13;;;11.23;;
17361;SDS011;8798;51.938;4.348;2023-12-07T09:47:47;30.87;;;11.57;;
17361;SDS011;8798;51.938;4.348;2023-12-07T09:50:17;25.17;;;10.43;;
17361;SDS011;8798;51.938;4.348;2023-12-07T09:52:49;26.97;;;11.00;;
17361;SDS011;8798;51.938;4.348;2023-12-07T09:55:32;25.67;;;10.70;;
17361;SDS011;8798;51.938;4.348;2023-12-07T09:58:03;23.13;;;10.93;;
17361;SDS011;8798;51.938;4.348;2023-12-07T10:00:34;25.27;;;10.07;;
17361;SDS011;8798;51.938;4.348;2023-12-07T10:03:04;25.67;;;10.60;;
17361;SDS011;8798;51.938;4.348;2023-12-07T10:05:46;23.67;;;10.60;;
17361;SDS011;8798;51.938;4.348;2023-12-07T10:08:28;23.30;;;10.40;;
17361;SDS011;8798;51.938;4.348;2023-12-07T10:11:07;24.53;;;9.60;;
17361;SDS011;8798;51.938;4.348;2023-12-07T10:13:36;23.77;;;10.23;;
17361;SDS011;8798;51.938;4.348;2023-12-07T10:16:08;18.90;;;9.73;;
17361;SDS011;8798;51.938;4.348;2023-12-07T10:18:40;20.83;;;10.07;;
17361;SDS011;8798;51.938;4.348;2023-12-07T10:21:10;19.47;;;8.87;;
17361;SDS011;8798;51.938;4.348;2023-12-07T10:23:40;21.07;;;9.10;;
17361;SDS011;8798;51.938;4.348;2023-12-07T10:26:15;19.47;;;9.53;;
17361;SDS011;8798;51.938;4.348;2023-12-07T10:28:45;19.20;;;10.07;;
17361;SDS011;8798;51.938;4.348;2023-12-07T10:31:20;21.93;;;10.07;;
17361;SDS011;8798;51.938;4.348;2023-12-07T10:33:50;21.90;;;9.83;;
17361;SDS011;8798;51.938;4.348;2023-12-07T10:36:19;22.50;;;10.67;;
17361;SDS011;8798;51.938;4.348;2023-12-07T10:38:47;26.37;;;11.53;;
17361;SDS011;8798;51.938;4.348;2023-12-07T10:41:18;21.87;;;10.53;;
17361;SDS011;8798;51.938;4.348;2023-12-07T10:43:48;22.53;;;9.17;;
17361;SDS011;8798;51.938;4.348;2023-12-07T10:46:19;22.97;;;10.30;;
17361;SDS011;8798;51.938;4.348;2023-12-07T10:48:50;22.00;;;10.83;;
17361;SDS011;8798;51.938;4.348;2023-12-07T10:51:23;23.67;;;10.67;;
17361;SDS011;8798;51.938;4.348;2023-12-07T10:53:57;20.30;;;10.57;;
17361;SDS011;8798;51.938;4.348;2023-12-07T10:56:32;24.07;;;10.60;;
17361;SDS011;8798;51.938;4.348;2023-12-07T10:59:07;26.63;;;11.63;;
17361;SDS011;8798;51.938;4.348;2023-12-07T11:01:52;25.40;;;11.67;;
17361;SDS011;8798;51.938;4.348;2023-12-07T11:04:22;24.40;;;11.43;;
17361;SDS011;8798;51.938;4.348;2023-12-07T11:06:53;23.90;;;11.10;;
17361;SDS011;8798;51.938;4.348;2023-12-07T11:09:25;26.37;;;11.90;;
17361;SDS011;8798;51.938;4.348;2023-12-07T11:12:01;20.83;;;10.63;;
17361;SDS011;8798;51.938;4.348;2023-12-07T11:14:36;23.27;;;11.17;;
17361;SDS011;8798;51.938;4.348;2023-12-07T11:17:06;25.80;;;11.63;;
17361;SDS011;8798;51.938;4.348;2023-12-07T11:19:45;23.17;;;10.07;;
17361;SDS011;8798;51.938;4.348;2023-12-07T11:22:15;22.13;;;10.27;;
17361;SDS011;8798;51.938;4.348;2023-12-07T11:24:53;21.43;;;10.47;;
17361;SDS011;8798;51.938;4.348;2023-12-07T11:27:24;19.67;;;9.50;;
17361;SDS011;8798;51.938;4.348;2023-12-07T11:29:52;19.20;;;9.70;;
17361;SDS011;8798;51.938;4.348;2023-12-07T11:32:21;18.30;;;10.17;;
17361;SDS011;8798;51.938;4.348;2023-12-07T11:34:59;20.00;;;9.70;;
17361;SDS011;8798;51.938;4.348;2023-12-07T11:40:29;20.20;;;9.90;;
17361;SDS011;8798;51.938;4.348;2023-12-07T11:42:59;19.87;;;9.67;;
17361;SDS011;8798;51.938;4.348;2023-12-07T11:45:40;16.53;;;9.40;;
17361;SDS011;8798;51.938;4.348;2023-12-07T11:48:10;17.53;;;9.07;;
17361;SDS011;8798;51.938;4.348;2023-12-07T11:50:54;16.90;;;8.80;;
17361;SDS011;8798;51.938;4.348;2023-12-07T11:53:24;17.67;;;9.20;;
17361;SDS011;8798;51.938;4.348;2023-12-07T11:55:53;20.97;;;9.23;;
17361;SDS011;8798;51.938;4.348;2023-12-07T11:58:24;18.17;;;9.13;;
17361;SDS011;8798;51.938;4.348;2023-12-07T12:00:58;16.20;;;8.77;;
17361;SDS011;8798;51.938;4.348;2023-12-07T12:03:27;18.53;;;9.40;;
17361;SDS011;8798;51.938;4.348;2023-12-07T12:05:59;17.67;;;8.43;;
17361;SDS011;8798;51.938;4.348;2023-12-07T12:08:27;17.60;;;8.90;;
17361;SDS011;8798;51.938;4.348;2023-12-07T12:10:55;14.37;;;8.50;;
17361;SDS011;8798;51.938;4.348;2023-12-07T12:13:27;15.80;;;8.27;;
17361;SDS011;8798;51.938;4.348;2023-12-07T12:15:56;21.33;;;8.83;;
17361;SDS011;8798;51.938;4.348;2023-12-07T12:18:29;17.40;;;8.30;;
17361;SDS011;8798;51.938;4.348;2023-12-07T12:21:01;17.60;;;8.67;;
17361;SDS011;8798;51.938;4.348;2023-12-07T12:23:29;16.93;;;8.33;;
17361;SDS011;8798;51.938;4.348;2023-12-07T12:26:00;19.13;;;8.57;;
17361;SDS011;8798;51.938;4.348;2023-12-07T12:28:29;14.77;;;8.73;;
17361;SDS011;8798;51.938;4.348;2023-12-07T12:30:59;17.17;;;9.00;;
17361;SDS011;8798;51.938;4.348;2023-12-07T12:33:28;16.37;;;8.70;;
17361;SDS011;8798;51.938;4.348;2023-12-07T12:36:04;17.10;;;8.97;;
17361;SDS011;8798;51.938;4.348;2023-12-07T12:38:37;16.70;;;8.70;;
17361;SDS011;8798;51.938;4.348;2023-12-07T12:41:09;16.73;;;9.10;;
17361;SDS011;8798;51.938;4.348;2023-12-07T12:43:39;18.97;;;9.43;;
17361;SDS011;8798;51.938;4.348;2023-12-07T12:46:09;20.63;;;9.27;;
17361;SDS011;8798;51.938;4.348;2023-12-07T12:48:51;24.83;;;9.87;;
17361;SDS011;8798;51.938;4.348;2023-12-07T12:51:23;17.23;;;9.33;;
17361;SDS011;8798;51.938;4.348;2023-12-07T12:53:53;16.97;;;9.50;;
17361;SDS011;8798;51.938;4.348;2023-12-07T12:56:23;19.53;;;9.23;;
17361;SDS011;8798;51.938;4.348;2023-12-07T12:58:52;21.57;;;10.67;;
17361;SDS011;8798;51.938;4.348;2023-12-07T13:01:29;16.73;;;9.20;;
17361;SDS011;8798;51.938;4.348;2023-12-07T13:03:58;23.30;;;10.90;;
17361;SDS011;8798;51.938;4.348;2023-12-07T13:06:28;21.77;;;10.20;;
17361;SDS011;8798;51.938;4.348;2023-12-07T13:08:56;18.53;;;9.03;;
17361;SDS011;8798;51.938;4.348;2023-12-07T13:11:24;18.10;;;9.40;;
17361;SDS011;8798;51.938;4.348;2023-12-07T13:13:55;20.73;;;9.37;;
17361;SDS011;8798;51.938;4.348;2023-12-07T13:16:24;20.90;;;9.63;;
17361;SDS011;8798;51.938;4.348;2023-12-07T13:18:53;19.07;;;10.03;;
17361;SDS011;8798;51.938;4.348;2023-12-07T13:21:22;16.63;;;9.40;;
17361;SDS011;8798;51.938;4.348;2023-12-07T13:23:52;16.80;;;9.10;;
17361;SDS011;8798;51.938;4.348;2023-12-07T13:26:20;17.97;;;9.47;;
17361;SDS011;8798;51.938;4.348;2023-12-07T13:28:50;15.17;;;8.50;;
17361;SDS011;8798;51.938;4.348;2023-12-07T13:31:19;19.83;;;9.03;;
17361;SDS011;8798;51.938;4.348;2023-12-07T13:33:48;21.17;;;8.73;;
17361;SDS011;8798;51.938;4.348;2023-12-07T13:36:23;21.13;;;8.90;;
17361;SDS011;8798;51.938;4.348;2023-12-07T13:38:55;19.03;;;9.57;;
17361;SDS011;8798;51.938;4.348;2023-12-07T13:41:23;17.23;;;9.23;;
17361;SDS011;8798;51.938;4.348;2023-12-07T13:43:51;15.10;;;8.33;;
17361;SDS011;8798;51.938;4.348;2023-12-07T13:46:20;20.50;;;9.63;;
17361;SDS011;8798;51.938;4.348;2023-12-07T13:48:50;18.13;;;8.77;;
17361;SDS011;8798;51.938;4.348;2023-12-07T13:51:18;15.33;;;7.83;;
17361;SDS011;8798;51.938;4.348;2023-12-07T13:53:47;16.83;;;9.20;;
17361;SDS011;8798;51.938;4.348;2023-12-07T13:56:27;16.60;;;8.50;;
17361;SDS011;8798;51.938;4.348;2023-12-07T13:58:55;16.27;;;8.43;;
17361;SDS011;8798;51.938;4.348;2023-12-07T14:01:23;15.63;;;8.03;;
17361;SDS011;8798;51.938;4.348;2023-12-07T14:03:52;16.90;;;8.73;;
17361;SDS011;8798;51.938;4.348;2023-12-07T14:06:22;15.67;;;8.50;;
17361;SDS011;8798;51.938;4.348;2023-12-07T14:08:54;16.30;;;7.90;;
17361;SDS011;8798;51.938;4.348;2023-12-07T14:11:24;14.23;;;8.07;;
17361;SDS011;8798;51.938;4.348;2023-12-07T14:13:53;16.50;;;8.60;;
17361;SDS011;8798;51.938;4.348;2023-12-07T14:16:21;13.57;;;7.63;;
17361;SDS011;8798;51.938;4.348;2023-12-07T14:19:10;17.47;;;8.73;;
17361;SDS011;8798;51.938;4.348;2023-12-07T14:21:41;14.07;;;7.17;;
17361;SDS011;8798;51.938;4.348;2023-12-07T14:24:21;16.07;;;7.70;;
17361;SDS011;8798;51.938;4.348;2023-12-07T14:26:50;14.60;;;7.57;;
17361;SDS011;8798;51.938;4.348;2023-12-07T14:29:20;14.13;;;7.50;;
17361;SDS011;8798;51.938;4.348;2023-12-07T14:31:53;15.27;;;7.97;;
17361;SDS011;8798;51.938;4.348;2023-12-07T14:34:21;14.00;;;7.27;;
17361;SDS011;8798;51.938;4.348;2023-12-07T14:37:00;15.27;;;8.33;;
17361;SDS011;8798;51.938;4.348;2023-12-07T14:39:29;16.43;;;7.77;;
17361;SDS011;8798;51.938;4.348;2023-12-07T14:41:57;15.87;;;7.70;;
17361;SDS011;8798;51.938;4.348;2023-12-07T14:44:27;15.63;;;7.43;;
17361;SDS011;8798;51.938;4.348;2023-12-07T14:46:56;15.40;;;8.43;;
17361;SDS011;8798;51.938;4.348;2023-12-07T14:49:24;13.93;;;7.43;;
17361;SDS011;8798;51.938;4.348;2023-12-07T14:51:54;14.13;;;7.77;;
17361;SDS011;8798;51.938;4.348;2023-12-07T14:54:25;13.27;;;6.80;;
17361;SDS011;8798;51.938;4.348;2023-12-07T14:56:56;13.57;;;7.57;;
17361;SDS011;8798;51.938;4.348;2023-12-07T14:59:27;16.10;;;7.07;;
17361;SDS011;8798;51.938;4.348;2023-12-07T15:01:56;12.53;;;6.77;;
17361;SDS011;8798;51.938;4.348;2023-12-07T15:04:24;14.03;;;6.93;;